Main page
METAR-TAF:

METAR-TAF

Airports :

Halliburton Field

Duncan, Oklahoma, United States

latitude: 34-28-15N, longitude: 097-57-36W, elevation: 1112 ft

Current weather observation

The report was made 16 minutes ago, at 13:15 UTC
Wind 10 mph from the East
Temperature 77°F
Humidity 83%
Pressure 30.22 in. Hg
Visibility: 10 miles
Scattered clouds at a height of 1500 ft
Broken clouds at a height of 6000 ft

METAR: KDUC 201315Z AUTO 10009KT 10SM SCT015 BKN060 25/22 A3022 RMK AO2 T02480221

Time: 08:31 (13:31 UTC)


TAF: missing

Weather observations and forecasts of more than 4000 airports (METAR and TAF reports).

The available stations are represented by yellow and red dots on the map.

Hover mouse over dot to see the name of the station.

Then click to see weather observations and forecasts.

To change the map : click on the green buttons with a black cross to zoom in, on the green button with a dash to zoom out, or on the green arrows for adjacent maps.


METAR-TAF: